sensor_id;sensor_type;location;lat;lon;timestamp;pressure;altitude;pressure_sealevel;temperature;humidity
9249;BME280;4660;41.768;26.198;2022-09-21T00:00:25;100967.69;;;13.86;97.55
9249;BME280;4660;41.768;26.198;2022-09-21T00:02:54;100962.69;;;13.55;95.26
9249;BME280;4660;41.768;26.198;2022-09-21T00:05:20;100957.38;;;13.45;95.38
9249;BME280;4660;41.768;26.198;2022-09-21T00:07:46;100962.44;;;13.48;94.82
9249;BME280;4660;41.768;26.198;2022-09-21T00:10:11;100963.53;;;13.56;92.94
9249;BME280;4660;41.768;26.198;2022-09-21T00:12:37;100957.03;;;13.31;93.19
9249;BME280;4660;41.768;26.198;2022-09-21T00:15:07;100965.16;;;13.31;92.69
9249;BME280;4660;41.768;26.198;2022-09-21T00:17:34;100956.50;;;13.27;92.41
9249;BME280;4660;41.768;26.198;2022-09-21T00:20:00;100961.78;;;13.19;92.68
9249;BME280;4660;41.768;26.198;2022-09-21T00:22:28;100963.50;;;13.20;92.59
9249;BME280;4660;41.768;26.198;2022-09-21T00:24:53;100962.78;;;13.18;93.46
9249;BME280;4660;41.768;26.198;2022-09-21T00:27:21;100956.19;;;13.30;93.22
9249;BME280;4660;41.768;26.198;2022-09-21T00:29:46;100961.13;;;13.35;96.15
9249;BME280;4660;41.768;26.198;2022-09-21T00:32:13;100965.91;;;13.41;98.17
9249;BME280;4660;41.768;26.198;2022-09-21T00:34:40;100972.25;;;13.32;100.00
9249;BME280;4660;41.768;26.198;2022-09-21T00:37:06;100966.28;;;13.28;100.00
9249;BME280;4660;41.768;26.198;2022-09-21T00:39:33;100958.66;;;13.41;100.00
9249;BME280;4660;41.768;26.198;2022-09-21T00:41:59;100970.88;;;13.18;100.00
9249;BME280;4660;41.768;26.198;2022-09-21T00:44:30;100973.19;;;13.13;100.00
9249;BME280;4660;41.768;26.198;2022-09-21T00:47:01;100960.75;;;13.02;100.00
9249;BME280;4660;41.768;26.198;2022-09-21T00:49:29;100955.84;;;13.15;100.00
9249;BME280;4660;41.768;26.198;2022-09-21T00:51:58;100951.56;;;13.13;100.00
9249;BME280;4660;41.768;26.198;2022-09-21T00:54:34;100961.19;;;12.98;100.00
9249;BME280;4660;41.768;26.198;2022-09-21T00:57:01;100973.81;;;12.79;100.00
9249;BME280;4660;41.768;26.198;2022-09-21T00:59:29;100953.16;;;12.88;100.00
9249;BME280;4660;41.768;26.198;2022-09-21T01:01:57;100960.09;;;12.63;100.00
9249;BME280;4660;41.768;26.198;2022-09-21T01:04:23;100961.50;;;12.67;100.00
9249;BME280;4660;41.768;26.198;2022-09-21T01:06:51;100955.03;;;12.50;100.00
9249;BME280;4660;41.768;26.198;2022-09-21T01:09:17;100949.28;;;12.63;100.00
9249;BME280;4660;41.768;26.198;2022-09-21T01:17:50;100945.13;;;12.41;100.00
9249;BME280;4660;41.768;26.198;2022-09-21T01:23:08;100944.78;;;12.54;100.00
9249;BME280;4660;41.768;26.198;2022-09-21T01:31:26;100931.00;;;12.20;100.00
9249;BME280;4660;41.768;26.198;2022-09-21T01:33:57;100928.03;;;12.13;100.00
9249;BME280;4660;41.768;26.198;2022-09-21T01:36:27;100934.69;;;12.19;100.00
9249;BME280;4660;41.768;26.198;2022-09-21T01:39:00;100933.84;;;12.18;100.00
9249;BME280;4660;41.768;26.198;2022-09-21T01:41:29;100932.47;;;11.75;100.00
9249;BME280;4660;41.768;26.198;2022-09-21T01:43:59;100921.13;;;11.62;100.00
9249;BME280;4660;41.768;26.198;2022-09-21T01:46:29;100937.59;;;11.40;100.00
9249;BME280;4660;41.768;26.198;2022-09-21T01:48:59;100936.41;;;11.13;100.00
9249;BME280;4660;41.768;26.198;2022-09-21T01:51:31;100917.88;;;11.20;100.00
9249;BME280;4660;41.768;26.198;2022-09-21T01:54:06;100920.59;;;11.29;100.00
9249;BME280;4660;41.768;26.198;2022-09-21T01:56:45;100922.84;;;11.34;100.00
9249;BME280;4660;41.768;26.198;2022-09-21T02:02:13;100913.78;;;11.45;100.00
9249;BME280;4660;41.768;26.198;2022-09-21T02:04:39;100909.53;;;11.52;100.00
9249;BME280;4660;41.768;26.198;2022-09-21T02:07:06;100910.66;;;11.59;100.00
9249;BME280;4660;41.768;26.198;2022-09-21T02:09:34;100912.63;;;11.96;100.00
9249;BME280;4660;41.768;26.198;2022-09-21T02:12:00;100900.94;;;12.05;100.00
9249;BME280;4660;41.768;26.198;2022-09-21T02:14:26;100884.75;;;12.15;100.00
9249;BME280;4660;41.768;26.198;2022-09-21T02:20:18;100886.59;;;12.42;100.00
9249;BME280;4660;41.768;26.198;2022-09-21T02:22:51;100894.25;;;12.46;100.00
9249;BME280;4660;41.768;26.198;2022-09-21T02:28:03;100896.56;;;12.41;100.00
9249;BME280;4660;41.768;26.198;2022-09-21T02:30:32;100897.66;;;12.48;100.00
9249;BME280;4660;41.768;26.198;2022-09-21T02:33:18;100893.88;;;12.68;100.00
9249;BME280;4660;41.768;26.198;2022-09-21T02:35:50;100908.81;;;12.63;100.00
9249;BME280;4660;41.768;26.198;2022-09-21T02:41:25;100907.75;;;12.09;100.00
9249;BME280;4660;41.768;26.198;2022-09-21T02:44:05;100912.41;;;12.17;100.00
9249;BME280;4660;41.768;26.198;2022-09-21T02:49:06;100927.75;;;12.16;100.00
9249;BME280;4660;41.768;26.198;2022-09-21T02:51:57;100924.06;;;12.17;100.00
9249;BME280;4660;41.768;26.198;2022-09-21T02:54:26;100924.94;;;11.98;100.00
9249;BME280;4660;41.768;26.198;2022-09-21T02:56:54;100917.16;;;11.66;100.00
9249;BME280;4660;41.768;26.198;2022-09-21T02:59:20;100925.66;;;11.71;100.00
9249;BME280;4660;41.768;26.198;2022-09-21T03:01:48;100927.91;;;12.05;100.00
9249;BME280;4660;41.768;26.198;2022-09-21T03:04:15;100914.16;;;12.08;100.00
9249;BME280;4660;41.768;26.198;2022-09-21T03:06:41;100917.44;;;12.02;100.00
9249;BME280;4660;41.768;26.198;2022-09-21T03:09:07;100919.69;;;11.97;100.00
9249;BME280;4660;41.768;26.198;2022-09-21T03:11:33;100891.63;;;11.80;100.00
9249;BME280;4660;41.768;26.198;2022-09-21T03:14:01;100919.13;;;12.03;100.00
9249;BME280;4660;41.768;26.198;2022-09-21T03:16:29;100917.69;;;11.99;100.00
9249;BME280;4660;41.768;26.198;2022-09-21T03:18:55;100927.91;;;12.05;100.00
9249;BME280;4660;41.768;26.198;2022-09-21T03:21:21;100907.41;;;12.31;100.00
9249;BME280;4660;41.768;26.198;2022-09-21T03:23:46;100926.06;;;12.52;100.00
9249;BME280;4660;41.768;26.198;2022-09-21T03:26:12;100920.81;;;12.51;100.00
9249;BME280;4660;41.768;26.198;2022-09-21T03:28:38;100922.78;;;12.49;100.00
9249;BME280;4660;41.768;26.198;2022-09-21T03:31:04;100917.28;;;12.50;100.00
9249;BME280;4660;41.768;26.198;2022-09-21T03:33:31;100918.91;;;12.61;100.00
9249;BME280;4660;41.768;26.198;2022-09-21T03:35:57;100913.81;;;12.58;100.00
9249;BME280;4660;41.768;26.198;2022-09-21T03:38:23;100922.41;;;12.44;100.00
9249;BME280;4660;41.768;26.198;2022-09-21T03:40:50;100908.88;;;12.16;100.00
9249;BME280;4660;41.768;26.198;2022-09-21T03:43:16;100922.31;;;12.26;100.00
9249;BME280;4660;41.768;26.198;2022-09-21T03:45:42;100924.75;;;12.29;100.00
9249;BME280;4660;41.768;26.198;2022-09-21T03:48:10;100922.81;;;12.02;100.00
9249;BME280;4660;41.768;26.198;2022-09-21T03:50:36;100925.66;;;12.00;100.00
9249;BME280;4660;41.768;26.198;2022-09-21T03:53:02;100923.97;;;11.90;100.00
9249;BME280;4660;41.768;26.198;2022-09-21T03:55:28;100922.56;;;11.66;100.00
9249;BME280;4660;41.768;26.198;2022-09-21T03:57:54;100925.13;;;11.58;100.00
9249;BME280;4660;41.768;26.198;2022-09-21T04:00:20;100921.44;;;11.59;100.00
9249;BME280;4660;41.768;26.198;2022-09-21T04:02:46;100936.16;;;11.36;100.00
9249;BME280;4660;41.768;26.198;2022-09-21T04:05:14;100928.97;;;11.36;100.00
9249;BME280;4660;41.768;26.198;2022-09-21T04:07:41;100945.13;;;11.65;100.00
9249;BME280;4660;41.768;26.198;2022-09-21T04:10:09;100950.06;;;11.60;100.00
9249;BME280;4660;41.768;26.198;2022-09-21T04:12:39;100936.16;;;11.74;100.00
9249;BME280;4660;41.768;26.198;2022-09-21T04:15:12;100946.97;;;11.84;100.00
9249;BME280;4660;41.768;26.198;2022-09-21T04:17:38;100938.56;;;11.77;100.00
9249;BME280;4660;41.768;26.198;2022-09-21T04:20:05;100950.94;;;11.90;100.00
9249;BME280;4660;41.768;26.198;2022-09-21T04:22:30;100943.50;;;12.11;100.00
9249;BME280;4660;41.768;26.198;2022-09-21T04:24:56;100948.47;;;12.06;100.00
9249;BME280;4660;41.768;26.198;2022-09-21T04:27:22;100949.66;;;11.94;100.00
9249;BME280;4660;41.768;26.198;2022-09-21T04:29:48;100934.06;;;11.88;100.00
9249;BME280;4660;41.768;26.198;2022-09-21T04:32:14;100941.25;;;11.77;100.00
9249;BME280;4660;41.768;26.198;2022-09-21T04:34:39;100951.63;;;11.72;100.00
9249;BME280;4660;41.768;26.198;2022-09-21T04:37:06;100954.03;;;11.56;100.00
9249;BME280;4660;41.768;26.198;2022-09-21T04:39:36;100961.72;;;11.51;100.00
9249;BME280;4660;41.768;26.198;2022-09-21T04:42:02;100954.91;;;11.47;100.00
9249;BME280;4660;41.768;26.198;2022-09-21T04:44:29;100964.53;;;11.49;100.00
9249;BME280;4660;41.768;26.198;2022-09-21T04:46:56;100966.69;;;11.65;100.00
9249;BME280;4660;41.768;26.198;2022-09-21T04:49:21;100967.09;;;11.70;100.00
9249;BME280;4660;41.768;26.198;2022-09-21T04:51:47;100963.41;;;11.91;100.00
9249;BME280;4660;41.768;26.198;2022-09-21T04:54:13;100954.06;;;11.95;100.00
9249;BME280;4660;41.768;26.198;2022-09-21T04:56:39;100961.69;;;11.99;100.00
9249;BME280;4660;41.768;26.198;2022-09-21T04:59:04;100937.41;;;11.99;100.00
9249;BME280;4660;41.768;26.198;2022-09-21T05:01:30;100953.31;;;12.12;100.00
9249;BME280;4660;41.768;26.198;2022-09-21T05:03:55;100971.91;;;12.15;100.00
9249;BME280;4660;41.768;26.198;2022-09-21T05:06:29;100965.34;;;12.18;100.00
9249;BME280;4660;41.768;26.198;2022-09-21T05:08:55;100948.06;;;12.10;100.00
9249;BME280;4660;41.768;26.198;2022-09-21T05:11:40;100961.38;;;12.12;100.00
9249;BME280;4660;41.768;26.198;2022-09-21T05:14:10;100954.00;;;12.14;100.00
9249;BME280;4660;41.768;26.198;2022-09-21T05:16:36;100969.72;;;12.28;100.00
9249;BME280;4660;41.768;26.198;2022-09-21T05:19:02;100953.69;;;12.36;100.00
9249;BME280;4660;41.768;26.198;2022-09-21T05:21:28;100973.69;;;12.71;100.00
9249;BME280;4660;41.768;26.198;2022-09-21T05:23:56;100972.81;;;12.80;100.00
9249;BME280;4660;41.768;26.198;2022-09-21T05:26:22;100979.69;;;12.92;100.00
9249;BME280;4660;41.768;26.198;2022-09-21T05:28:48;100982.91;;;13.06;100.00
9249;BME280;4660;41.768;26.198;2022-09-21T05:33:50;100964.78;;;13.16;100.00
9249;BME280;4660;41.768;26.198;2022-09-21T05:39:00;100968.91;;;13.20;100.00
9249;BME280;4660;41.768;26.198;2022-09-21T05:41:26;100949.94;;;13.02;100.00
9249;BME280;4660;41.768;26.198;2022-09-21T05:43:52;100961.66;;;12.93;100.00
9249;BME280;4660;41.768;26.198;2022-09-21T05:49:16;100952.25;;;12.97;100.00
9249;BME280;4660;41.768;26.198;2022-09-21T05:52:05;100950.84;;;13.20;100.00
9249;BME280;4660;41.768;26.198;2022-09-21T05:55:32;100958.97;;;13.56;100.00
9249;BME280;4660;41.768;26.198;2022-09-21T06:00:22;100938.13;;;13.66;100.00
9249;BME280;4660;41.768;26.198;2022-09-21T06:03:20;100945.56;;;13.90;100.00
9249;BME280;4660;41.768;26.198;2022-09-21T06:05:48;100911.31;;;13.73;100.00
9249;BME280;4660;41.768;26.198;2022-09-21T06:08:14;100940.28;;;14.07;100.00
9249;BME280;4660;41.768;26.198;2022-09-21T06:10:39;100917.41;;;13.75;100.00
9249;BME280;4660;41.768;26.198;2022-09-21T06:13:05;100952.81;;;14.08;100.00
9249;BME280;4660;41.768;26.198;2022-09-21T06:15:32;100953.78;;;14.24;100.00
9249;BME280;4660;41.768;26.198;2022-09-21T06:18:05;100950.09;;;14.33;100.00
9249;BME280;4660;41.768;26.198;2022-09-21T06:20:34;100944.13;;;14.22;100.00
9249;BME280;4660;41.768;26.198;2022-09-21T06:23:04;100953.59;;;14.26;100.00
9249;BME280;4660;41.768;26.198;2022-09-21T06:25:31;100946.25;;;14.36;100.00
9249;BME280;4660;41.768;26.198;2022-09-21T06:28:09;100942.56;;;14.45;100.00
9249;BME280;4660;41.768;26.198;2022-09-21T06:30:36;100940.31;;;14.58;100.00
9249;BME280;4660;41.768;26.198;2022-09-21T06:33:03;100936.03;;;14.56;100.00
9249;BME280;4660;41.768;26.198;2022-09-21T06:35:30;100969.16;;;14.76;100.00
9249;BME280;4660;41.768;26.198;2022-09-21T06:38:00;100944.13;;;14.82;100.00
9249;BME280;4660;41.768;26.198;2022-09-21T06:40:30;100962.13;;;14.99;100.00
9249;BME280;4660;41.768;26.198;2022-09-21T06:43:00;100951.16;;;15.01;100.00
9249;BME280;4660;41.768;26.198;2022-09-21T06:45:27;100953.56;;;15.20;100.00
9249;BME280;4660;41.768;26.198;2022-09-21T06:47:53;100962.56;;;15.29;100.00
9249;BME280;4660;41.768;26.198;2022-09-21T06:50:19;100962.91;;;15.42;100.00
9249;BME280;4660;41.768;26.198;2022-09-21T06:52:45;100963.72;;;15.26;100.00
9249;BME280;4660;41.768;26.198;2022-09-21T06:55:11;100954.59;;;15.35;99.36
9249;BME280;4660;41.768;26.198;2022-09-21T06:57:37;100960.56;;;15.55;98.52
9249;BME280;4660;41.768;26.198;2022-09-21T07:00:04;100952.50;;;15.80;96.86
9249;BME280;4660;41.768;26.198;2022-09-21T07:02:29;100954.50;;;16.02;94.37
9249;BME280;4660;41.768;26.198;2022-09-21T07:04:55;100954.50;;;16.10;93.84
9249;BME280;4660;41.768;26.198;2022-09-21T07:07:23;100965.00;;;16.30;92.10
9249;BME280;4660;41.768;26.198;2022-09-21T07:09:49;100973.44;;;16.43;91.56
9249;BME280;4660;41.768;26.198;2022-09-21T07:12:16;100964.50;;;16.18;91.81
9249;BME280;4660;41.768;26.198;2022-09-21T07:14:42;100964.50;;;16.10;92.97
9249;BME280;4660;41.768;26.198;2022-09-21T07:17:14;100960.13;;;16.01;92.12
9249;BME280;4660;41.768;26.198;2022-09-21T07:19:39;100964.31;;;16.28;90.72
9249;BME280;4660;41.768;26.198;2022-09-21T07:22:07;100970.41;;;16.38;90.32
9249;BME280;4660;41.768;26.198;2022-09-21T07:24:35;100954.44;;;16.35;91.10
9249;BME280;4660;41.768;26.198;2022-09-21T07:27:04;100956.78;;;16.54;90.47
9249;BME280;4660;41.768;26.198;2022-09-21T07:29:29;100936.09;;;16.53;90.74
9249;BME280;4660;41.768;26.198;2022-09-21T07:31:55;100963.13;;;16.94;88.45
9249;BME280;4660;41.768;26.198;2022-09-21T07:34:20;100968.06;;;17.29;86.00
9249;BME280;4660;41.768;26.198;2022-09-21T07:36:46;100974.47;;;17.37;84.61
9249;BME280;4660;41.768;26.198;2022-09-21T07:39:11;100966.06;;;17.46;81.92
9249;BME280;4660;41.768;26.198;2022-09-21T07:41:37;100956.78;;;17.32;80.34
9249;BME280;4660;41.768;26.198;2022-09-21T07:44:03;100973.72;;;17.43;80.42
9249;BME280;4660;41.768;26.198;2022-09-21T07:46:29;100970.59;;;17.54;81.43
9249;BME280;4660;41.768;26.198;2022-09-21T07:48:55;100967.56;;;17.49;78.98
9249;BME280;4660;41.768;26.198;2022-09-21T07:51:21;100961.19;;;17.65;77.94
9249;BME280;4660;41.768;26.198;2022-09-21T07:53:53;100976.75;;;17.79;77.91
9249;BME280;4660;41.768;26.198;2022-09-21T07:56:21;100967.91;;;17.77;77.40
9249;BME280;4660;41.768;26.198;2022-09-21T07:58:47;100970.97;;;17.97;74.05
9249;BME280;4660;41.768;26.198;2022-09-21T08:01:39;100947.25;;;18.05;73.90
9249;BME280;4660;41.768;26.198;2022-09-21T08:04:07;100962.78;;;18.20;72.14
9249;BME280;4660;41.768;26.198;2022-09-21T08:06:34;100961.41;;;18.38;71.56
9249;BME280;4660;41.768;26.198;2022-09-21T08:09:04;100954.81;;;18.48;72.12
9249;BME280;4660;41.768;26.198;2022-09-21T08:11:31;100955.56;;;18.41;67.79
9249;BME280;4660;41.768;26.198;2022-09-21T08:14:01;100957.81;;;18.23;67.56
9249;BME280;4660;41.768;26.198;2022-09-21T08:16:28;100964.31;;;18.52;68.29
9249;BME280;4660;41.768;26.198;2022-09-21T08:18:55;100960.38;;;18.54;64.79
9249;BME280;4660;41.768;26.198;2022-09-21T08:21:21;100946.94;;;18.53;66.93
9249;BME280;4660;41.768;26.198;2022-09-21T08:23:47;100952.09;;;18.62;66.79
9249;BME280;4660;41.768;26.198;2022-09-21T08:26:15;100936.91;;;18.68;66.39
9249;BME280;4660;41.768;26.198;2022-09-21T08:28:45;100952.38;;;18.97;65.42
9249;BME280;4660;41.768;26.198;2022-09-21T08:31:15;100956.44;;;19.37;62.98
9249;BME280;4660;41.768;26.198;2022-09-21T08:33:42;100945.25;;;19.32;58.69
9249;BME280;4660;41.768;26.198;2022-09-21T08:36:07;100954.03;;;19.13;60.06
9249;BME280;4660;41.768;26.198;2022-09-21T08:38:35;100948.63;;;18.98;58.50
9249;BME280;4660;41.768;26.198;2022-09-21T08:41:13;100932.47;;;18.96;59.46
9249;BME280;4660;41.768;26.198;2022-09-21T08:43:42;100940.00;;;18.80;59.04
9249;BME280;4660;41.768;26.198;2022-09-21T08:46:21;100952.31;;;18.90;59.11
9249;BME280;4660;41.768;26.198;2022-09-21T08:49:06;100943.81;;;19.00;58.51
9249;BME280;4660;41.768;26.198;2022-09-21T08:51:39;100930.56;;;18.97;57.52
9249;BME280;4660;41.768;26.198;2022-09-21T08:54:12;100933.94;;;18.99;57.46
9249;BME280;4660;41.768;26.198;2022-09-21T08:56:39;100944.56;;;19.09;56.95
9249;BME280;4660;41.768;26.198;2022-09-21T08:59:11;100929.38;;;19.21;56.44
9249;BME280;4660;41.768;26.198;2022-09-21T09:04:49;100928.91;;;19.75;54.54
9249;BME280;4660;41.768;26.198;2022-09-21T09:07:31;100944.22;;;19.97;53.86
9249;BME280;4660;41.768;26.198;2022-09-21T09:15:57;100919.06;;;20.30;51.20
9249;BME280;4660;41.768;26.198;2022-09-21T09:18:53;100907.97;;;20.38;51.05
9249;BME280;4660;41.768;26.198;2022-09-21T09:21:24;100905.50;;;20.43;50.91
9249;BME280;4660;41.768;26.198;2022-09-21T09:24:18;100881.06;;;20.42;50.98
9249;BME280;4660;41.768;26.198;2022-09-21T09:27:19;100901.56;;;20.52;50.59
9249;BME280;4660;41.768;26.198;2022-09-21T09:29:54;100897.34;;;20.50;50.87
9249;BME280;4660;41.768;26.198;2022-09-21T09:32:28;100896.34;;;20.64;50.32
9249;BME280;4660;41.768;26.198;2022-09-21T09:37:53;100884.63;;;20.77;49.23
9249;BME280;4660;41.768;26.198;2022-09-21T09:40:47;100884.63;;;20.77;49.06
9249;BME280;4660;41.768;26.198;2022-09-21T09:49:36;100897.13;;;20.99;46.47
9249;BME280;4660;41.768;26.198;2022-09-21T09:52:03;100891.72;;;21.12;46.42
9249;BME280;4660;41.768;26.198;2022-09-21T09:54:32;100884.56;;;21.11;46.56
9249;BME280;4660;41.768;26.198;2022-09-21T09:57:01;100854.88;;;21.08;46.88
9249;BME280;4660;41.768;26.198;2022-09-21T09:59:34;100882.69;;;21.19;46.34
9249;BME280;4660;41.768;26.198;2022-09-21T10:02:17;100884.81;;;21.23;45.99
9249;BME280;4660;41.768;26.198;2022-09-21T10:07:42;100873.25;;;21.28;45.77
9249;BME280;4660;41.768;26.198;2022-09-21T10:10:36;100877.22;;;21.25;46.08
9249;BME280;4660;41.768;26.198;2022-09-21T10:13:05;100882.06;;;21.16;46.48
9249;BME280;4660;41.768;26.198;2022-09-21T10:15:41;100878.28;;;21.24;46.92
9249;BME280;4660;41.768;26.198;2022-09-21T10:21:07;100874.28;;;21.27;46.35
9249;BME280;4660;41.768;26.198;2022-09-21T10:23:35;100878.06;;;21.26;45.05
9249;BME280;4660;41.768;26.198;2022-09-21T10:26:06;100869.44;;;21.15;46.33
9249;BME280;4660;41.768;26.198;2022-09-21T10:28:33;100862.25;;;21.21;47.11
9249;BME280;4660;41.768;26.198;2022-09-21T10:31:11;100882.66;;;21.12;46.70
9249;BME280;4660;41.768;26.198;2022-09-21T10:33:53;100880.97;;;21.04;47.32
9249;BME280;4660;41.768;26.198;2022-09-21T10:36:37;100873.81;;;21.03;47.29
9249;BME280;4660;41.768;26.198;2022-09-21T10:39:26;100870.66;;;21.06;46.87
9249;BME280;4660;41.768;26.198;2022-09-21T10:44:24;100864.56;;;21.17;46.36
9249;BME280;4660;41.768;26.198;2022-09-21T10:46:51;100850.28;;;21.22;46.46
9249;BME280;4660;41.768;26.198;2022-09-21T10:49:23;100866.34;;;21.38;47.00
9249;BME280;4660;41.768;26.198;2022-09-21T10:51:52;100862.97;;;21.30;47.63
9249;BME280;4660;41.768;26.198;2022-09-21T10:54:23;100863.31;;;21.20;47.31
9249;BME280;4660;41.768;26.198;2022-09-21T10:56:57;100858.94;;;21.32;46.54
9249;BME280;4660;41.768;26.198;2022-09-21T10:59:27;100853.50;;;21.39;46.02
9249;BME280;4660;41.768;26.198;2022-09-21T11:01:55;100852.88;;;21.37;46.29
9249;BME280;4660;41.768;26.198;2022-09-21T11:04:42;100847.81;;;21.40;45.19
9249;BME280;4660;41.768;26.198;2022-09-21T11:07:20;100846.13;;;21.46;45.10
9249;BME280;4660;41.768;26.198;2022-09-21T11:10:11;100834.31;;;21.32;45.83
9249;BME280;4660;41.768;26.198;2022-09-21T11:20:57;100824.63;;;21.69;44.58
9249;BME280;4660;41.768;26.198;2022-09-21T11:26:28;100820.22;;;21.68;43.42
9249;BME280;4660;41.768;26.198;2022-09-21T11:29:01;100820.41;;;21.87;43.52
9249;BME280;4660;41.768;26.198;2022-09-21T11:31:40;100817.69;;;21.93;43.69
9249;BME280;4660;41.768;26.198;2022-09-21T11:44:48;100802.84;;;22.28;42.37
9249;BME280;4660;41.768;26.198;2022-09-21T11:58:36;100796.66;;;22.45;42.23
9249;BME280;4660;41.768;26.198;2022-09-21T12:06:42;100776.44;;;22.40;41.86
9249;BME280;4660;41.768;26.198;2022-09-21T12:12:08;100794.19;;;22.75;40.80
9249;BME280;4660;41.768;26.198;2022-09-21T12:14:46;100789.72;;;22.88;40.43
9249;BME280;4660;41.768;26.198;2022-09-21T12:23:11;100781.63;;;22.99;39.51
9249;BME280;4660;41.768;26.198;2022-09-21T12:25:43;100777.25;;;22.85;39.81
9249;BME280;4660;41.768;26.198;2022-09-21T12:28:29;100771.25;;;22.63;39.43
9249;BME280;4660;41.768;26.198;2022-09-21T12:31:02;100768.81;;;22.93;38.96
9249;BME280;4660;41.768;26.198;2022-09-21T12:34:02;100763.53;;;22.92;38.84
9249;BME280;4660;41.768;26.198;2022-09-21T12:36:37;100774.34;;;22.87;38.78
9249;BME280;4660;41.768;26.198;2022-09-21T12:39:14;100766.63;;;23.02;38.44
9249;BME280;4660;41.768;26.198;2022-09-21T12:41:50;100765.53;;;23.10;38.00
9249;BME280;4660;41.768;26.198;2022-09-21T12:44:33;100761.41;;;22.94;37.91
9249;BME280;4660;41.768;26.198;2022-09-21T12:47:23;100758.00;;;22.98;37.86
9249;BME280;4660;41.768;26.198;2022-09-21T12:49:57;100762.59;;;23.04;37.78
9249;BME280;4660;41.768;26.198;2022-09-21T12:52:26;100757.81;;;23.25;37.96
9249;BME280;4660;41.768;26.198;2022-09-21T13:00:09;100753.59;;;23.72;36.56
9249;BME280;4660;41.768;26.198;2022-09-21T13:02:41;100751.53;;;23.86;35.48
9249;BME280;4660;41.768;26.198;2022-09-21T13:08:00;100737.34;;;23.46;37.74
9249;BME280;4660;41.768;26.198;2022-09-21T13:10:57;100742.94;;;23.32;37.38
9249;BME280;4660;41.768;26.198;2022-09-21T13:15:53;100728.63;;;23.30;36.60
9249;BME280;4660;41.768;26.198;2022-09-21T13:18:31;100723.84;;;23.44;36.71
9249;BME280;4660;41.768;26.198;2022-09-21T13:21:13;100726.56;;;23.69;36.39
9249;BME280;4660;41.768;26.198;2022-09-21T13:23:39;100733.59;;;23.83;35.80
9249;BME280;4660;41.768;26.198;2022-09-21T13:26:08;100720.63;;;23.72;35.06
9249;BME280;4660;41.768;26.198;2022-09-21T13:36:36;100732.56;;;23.34;36.09
9249;BME280;4660;41.768;26.198;2022-09-21T13:39:13;100722.72;;;22.64;35.57
9249;BME280;4660;41.768;26.198;2022-09-21T13:41:39;100726.19;;;22.52;36.40
9249;BME280;4660;41.768;26.198;2022-09-21T13:44:38;100729.31;;;22.18;37.66
9249;BME280;4660;41.768;26.198;2022-09-21T13:47:06;100721.31;;;22.16;38.57
9249;BME280;4660;41.768;26.198;2022-09-21T13:49:45;100710.66;;;21.82;38.25
9249;BME280;4660;41.768;26.198;2022-09-21T14:02:51;100725.25;;;21.03;41.00
9249;BME280;4660;41.768;26.198;2022-09-21T14:07:59;100710.94;;;20.94;40.69
9249;BME280;4660;41.768;26.198;2022-09-21T14:10:26;100720.63;;;21.10;40.96
9249;BME280;4660;41.768;26.198;2022-09-21T14:12:54;100714.09;;;21.24;41.16
9249;BME280;4660;41.768;26.198;2022-09-21T14:21:07;100754.47;;;20.96;43.50
9249;BME280;4660;41.768;26.198;2022-09-21T14:23:34;100747.50;;;20.67;44.81
9249;BME280;4660;41.768;26.198;2022-09-21T14:26:18;100739.06;;;20.61;44.72
9249;BME280;4660;41.768;26.198;2022-09-21T14:28:48;100747.88;;;20.50;45.01
9249;BME280;4660;41.768;26.198;2022-09-21T14:31:23;100731.78;;;20.34;45.60
9249;BME280;4660;41.768;26.198;2022-09-21T14:33:53;100768.41;;;20.40;45.49
9249;BME280;4660;41.768;26.198;2022-09-21T14:36:44;100764.13;;;20.24;45.49
9249;BME280;4660;41.768;26.198;2022-09-21T14:39:32;100752.78;;;20.27;45.47
9249;BME280;4660;41.768;26.198;2022-09-21T14:42:02;100769.22;;;20.40;44.71
9249;BME280;4660;41.768;26.198;2022-09-21T14:44:33;100765.03;;;20.38;43.69
9249;BME280;4660;41.768;26.198;2022-09-21T14:55:34;100760.34;;;20.73;42.19
9249;BME280;4660;41.768;26.198;2022-09-21T15:00:43;100760.03;;;20.48;41.97
9249;BME280;4660;41.768;26.198;2022-09-21T15:05:55;100754.19;;;20.10;41.88
9249;BME280;4660;41.768;26.198;2022-09-21T15:08:53;100762.31;;;19.96;42.09
9249;BME280;4660;41.768;26.198;2022-09-21T15:11:46;100761.38;;;19.83;42.32
9249;BME280;4660;41.768;26.198;2022-09-21T15:14:33;100761.81;;;19.79;42.90
9249;BME280;4660;41.768;26.198;2022-09-21T15:17:26;100763.69;;;19.79;43.05
9249;BME280;4660;41.768;26.198;2022-09-21T15:20:00;100773.41;;;19.88;43.38
9249;BME280;4660;41.768;26.198;2022-09-21T15:22:42;100770.47;;;19.90;43.77
9249;BME280;4660;41.768;26.198;2022-09-21T15:25:11;100776.97;;;19.89;44.21
9249;BME280;4660;41.768;26.198;2022-09-21T15:27:41;100771.94;;;19.92;44.79
9249;BME280;4660;41.768;26.198;2022-09-21T15:32:47;100761.81;;;19.79;45.84
9249;BME280;4660;41.768;26.198;2022-09-21T15:35:31;100776.97;;;19.89;46.05
9249;BME280;4660;41.768;26.198;2022-09-21T15:37:58;100760.88;;;19.66;46.76
9249;BME280;4660;41.768;26.198;2022-09-21T15:40:34;100767.56;;;19.63;47.42
9249;BME280;4660;41.768;26.198;2022-09-21T15:48:25;100768.59;;;19.62;48.40
9249;BME280;4660;41.768;26.198;2022-09-21T15:54:05;100784.84;;;19.49;49.14
9249;BME280;4660;41.768;26.198;2022-09-21T15:56:33;100775.75;;;19.42;49.26
9249;BME280;4660;41.768;26.198;2022-09-21T15:59:05;100795.25;;;19.39;49.13
9249;BME280;4660;41.768;26.198;2022-09-21T16:01:51;100789.69;;;19.25;48.98
9249;BME280;4660;41.768;26.198;2022-09-21T16:04:20;100790.94;;;19.23;48.97
9249;BME280;4660;41.768;26.198;2022-09-21T16:07:05;100805.41;;;19.23;49.70
9249;BME280;4660;41.768;26.198;2022-09-21T16:09:44;100806.63;;;19.00;51.25
9249;BME280;4660;41.768;26.198;2022-09-21T16:12:39;100814.38;;;18.96;55.32